Venice — V7GA6 — position and weather

sailwx.info

Track history (hours):
 
Tides and Currents Weather Stations Pressure Air Temp Water Temp Dewpoint Dewpoint Depression Visibility Wind Speed Wind Dir Waves Ship Positions

Venice

Last reported at 2014-Oct-16 13:33 UTC. Time now 2014-Nov-24 14:59 UTC.
Position N 29°09' W 094°34'.
Warning: this ship's position is 39 days out of date.

Length 240 m; draft 8 m.

Type: Tanker. MMSI: 538002060.

Date/timePositionNaut miles runAvg speedWind from/ knotsBaromVisibWave heightAir tempDewpointWater temp
2014-Oct-16 13:33N 29°09' W 094°34'0 0.0
2014-Oct-16 11:28N 29°09' W 094°34'0 0.0
2014-Oct-16 10:32N 29°09' W 094°34'0 0.0
2014-Oct-16 09:33N 29°09' W 094°34'0 0.0
2014-Oct-16 08:06N 29°09' W 094°34'0 0.0
2014-Oct-16 06:30N 29°09' W 094°34'0 0.0
2014-Oct-16 05:16N 29°09' W 094°34'0 0.0
2014-Oct-16 04:30N 29°09' W 094°34'0 0.0
2014-Oct-15 12:27N 29°09' W 094°34'0 0.0
2014-Oct-15 11:33N 29°09' W 094°34'0 0.0
2014-Oct-15 10:23N 29°09' W 094°34'0 0.0
2014-Oct-15 05:05N 29°09' W 094°34'0 0.0
2014-Oct-15 04:30N 29°09' W 094°34'4 0.3
2014-Oct-14 14:13N 29°12' W 094°32'711.2
2014-Oct-14 13:33N 29°18' W 094°38'1111.3
2014-Oct-14 12:33N 29°24' W 094°49'1211.5
2014-Oct-14 11:33N 29°34' W 094°55'1010.3
2014-Oct-14 10:33N 29°43' W 095°01'5 5.2
2014-Oct-14 09:33N 29°44' W 095°07'1 0.5
2014-Oct-14 08:32N 29°44' W 095°08'0 0.0
2014-Oct-14 07:32N 29°44' W 095°08'0 0.0
2014-Oct-14 06:32N 29°44' W 095°08'0 0.0
2014-Oct-14 05:11N 29°44' W 095°08'0 0.0
2014-Oct-14 04:32N 29°44' W 095°08'0 0.0
2014-Oct-14 03:29N 29°44' W 095°08'0 0.0
2014-Oct-14 02:23N 29°44' W 095°08'0 0.0
2014-Oct-14 01:26N 29°44' W 095°08'0 0.0
2014-Oct-14 00:11N 29°44' W 095°08'0 0.0
2014-Oct-13 23:23N 29°44' W 095°08'0 0.0
2014-Oct-13 22:33N 29°44' W 095°08'0 0.0
2014-Oct-13 21:33N 29°44' W 095°08'0 0.0
2014-Oct-13 20:34N 29°44' W 095°08'0 0.0
2014-Oct-13 19:34N 29°44' W 095°08'0 0.0
2014-Oct-13 18:34N 29°44' W 095°08'0 0.0
2014-Oct-13 17:34N 29°44' W 095°08'0 0.0
2014-Oct-11 23:30N 29°44' W 095°08'3 3.5
2014-Oct-11 22:33N 29°45' W 095°04'5 5.1
2014-Oct-11 21:33N 29°42' W 094°60'8 8.4
2014-Oct-11 20:33N 29°34' W 094°55'8 7.9
2014-Oct-11 19:33N 29°27' W 094°51'7 6.8
2014-Oct-11 18:33N 29°21' W 094°47'  
Track history (hours):
 
Tides and Currents Weather Stations Pressure Air Temp Water Temp Dewpoint Dewpoint Depression Visibility Wind Speed Wind Dir Waves Ship Positions

Venice

Last reported at 2014-Oct-16 13:33 UTC. Time now 2014-Nov-24 14:59 UTC.
Position N 29°09' W 094°34'.
Warning: this ship's position is 39 days out of date.

Length 240 m; draft 8 m.

Type: Tanker. MMSI: 538002060.

Date/timePositionNaut miles runAvg speedWind from/ knotsBaromVisibWave heightAir tempDewpointWater temp
2014-Oct-16 13:33N 29°09' W 094°34'0 0.0
2014-Oct-16 11:28N 29°09' W 094°34'0 0.0
2014-Oct-16 10:32N 29°09' W 094°34'0 0.0
2014-Oct-16 09:33N 29°09' W 094°34'0 0.0
2014-Oct-16 08:06N 29°09' W 094°34'0 0.0
2014-Oct-16 06:30N 29°09' W 094°34'0 0.0
2014-Oct-16 05:16N 29°09' W 094°34'0 0.0
2014-Oct-16 04:30N 29°09' W 094°34'0 0.0
2014-Oct-15 12:27N 29°09' W 094°34'0 0.0
2014-Oct-15 11:33N 29°09' W 094°34'0 0.0
2014-Oct-15 10:23N 29°09' W 094°34'0 0.0
2014-Oct-15 05:05N 29°09' W 094°34'0 0.0
2014-Oct-15 04:30N 29°09' W 094°34'4 0.3
2014-Oct-14 14:13N 29°12' W 094°32'711.2
2014-Oct-14 13:33N 29°18' W 094°38'1111.3
2014-Oct-14 12:33N 29°24' W 094°49'1211.5
2014-Oct-14 11:33N 29°34' W 094°55'1010.3
2014-Oct-14 10:33N 29°43' W 095°01'5 5.2
2014-Oct-14 09:33N 29°44' W 095°07'1 0.5
2014-Oct-14 08:32N 29°44' W 095°08'0 0.0
2014-Oct-14 07:32N 29°44' W 095°08'0 0.0
2014-Oct-14 06:32N 29°44' W 095°08'0 0.0
2014-Oct-14 05:11N 29°44' W 095°08'0 0.0
2014-Oct-14 04:32N 29°44' W 095°08'0 0.0
2014-Oct-14 03:29N 29°44' W 095°08'0 0.0
2014-Oct-14 02:23N 29°44' W 095°08'0 0.0
2014-Oct-14 01:26N 29°44' W 095°08'0 0.0
2014-Oct-14 00:11N 29°44' W 095°08'0 0.0
2014-Oct-13 23:23N 29°44' W 095°08'0 0.0
2014-Oct-13 22:33N 29°44' W 095°08'0 0.0
2014-Oct-13 21:33N 29°44' W 095°08'0 0.0
2014-Oct-13 20:34N 29°44' W 095°08'0 0.0
2014-Oct-13 19:34N 29°44' W 095°08'0 0.0
2014-Oct-13 18:34N 29°44' W 095°08'0 0.0
2014-Oct-13 17:34N 29°44' W 095°08'0 0.0
2014-Oct-11 23:30N 29°44' W 095°08'3 3.5
2014-Oct-11 22:33N 29°45' W 095°04'5 5.1
2014-Oct-11 21:33N 29°42' W 094°60'8 8.4
2014-Oct-11 20:33N 29°34' W 094°55'8 7.9
2014-Oct-11 19:33N 29°27' W 094°51'7 6.8
2014-Oct-11 18:33N 29°21' W 094°47'  

Dump ship's entire track history